createdAt,value
2018-08-17T00:04:38.126Z,18.80
2018-08-17T00:09:41.612Z,18.80
2018-08-17T00:14:45.091Z,18.70
2018-08-17T00:19:48.525Z,18.60
2018-08-17T00:24:52.056Z,18.50
2018-08-17T00:29:55.515Z,18.40
2018-08-17T00:34:58.941Z,18.30
2018-08-17T00:40:02.413Z,18.20
2018-08-17T00:45:06.474Z,18.20
2018-08-17T00:50:09.944Z,18.20
2018-08-17T00:55:13.368Z,18.10
2018-08-17T01:00:16.880Z,18.00
2018-08-17T01:05:20.364Z,17.90
2018-08-17T01:10:23.800Z,17.90
2018-08-17T01:15:27.248Z,17.90
2018-08-17T01:20:30.714Z,17.80
2018-08-17T01:25:34.489Z,17.80
2018-08-17T01:30:38.042Z,17.80
2018-08-17T01:35:41.472Z,17.70
2018-08-17T01:40:44.916Z,17.70
2018-08-17T01:45:48.381Z,17.60
2018-08-17T01:50:51.805Z,17.60
2018-08-17T01:55:55.225Z,17.50
2018-08-17T02:00:58.642Z,17.40
2018-08-17T02:06:02.128Z,17.40
2018-08-17T02:11:05.620Z,17.30
2018-08-17T02:16:09.068Z,17.40
2018-08-17T02:21:12.587Z,17.30
2018-08-17T02:26:16.017Z,17.30
2018-08-17T02:31:19.431Z,17.30
2018-08-17T02:36:22.928Z,17.20
2018-08-17T02:41:26.350Z,17.20
2018-08-17T02:46:29.812Z,17.20
2018-08-17T02:51:40.071Z,17.10
2018-08-17T02:56:43.563Z,17.00
2018-08-17T03:01:47.039Z,17.00
2018-08-17T03:06:50.499Z,17.00
2018-08-17T03:11:53.918Z,17.00
2018-08-17T03:16:57.388Z,16.90
2018-08-17T03:22:00.844Z,16.90
2018-08-17T03:27:04.283Z,16.90
2018-08-17T03:32:07.777Z,16.90
2018-08-17T03:37:11.242Z,17.00
2018-08-17T03:42:14.695Z,17.00
2018-08-17T03:47:18.131Z,17.00
2018-08-17T03:52:21.620Z,17.00
2018-08-17T03:57:25.055Z,17.00
2018-08-17T04:02:28.512Z,17.00
2018-08-17T04:07:31.940Z,17.00
2018-08-17T04:12:35.557Z,17.00
2018-08-17T04:17:40.124Z,16.90
2018-08-17T04:22:43.751Z,16.90
2018-08-17T04:27:47.176Z,16.90
2018-08-17T04:32:50.592Z,17.00
2018-08-17T04:37:54.253Z,17.00
2018-08-17T04:42:57.692Z,16.90
2018-08-17T04:48:01.152Z,17.10
2018-08-17T04:53:04.665Z,17.10
2018-08-17T04:58:08.179Z,17.20
2018-08-17T05:03:11.669Z,17.40
2018-08-17T05:08:15.232Z,17.60
2018-08-17T05:13:18.684Z,17.80
2018-08-17T05:18:22.132Z,18.00
2018-08-17T05:23:25.646Z,18.10
2018-08-17T05:28:29.075Z,18.30
2018-08-17T05:33:32.519Z,18.70
2018-08-17T05:38:35.968Z,19.70
2018-08-17T05:43:39.383Z,21.00
2018-08-17T05:48:42.801Z,22.50
2018-08-17T05:53:46.621Z,24.00
2018-08-17T05:58:50.456Z,25.70
2018-08-17T06:03:53.988Z,25.90
2018-08-17T06:08:57.461Z,26.30
2018-08-17T06:14:00.937Z,27.50
2018-08-17T06:19:04.450Z,28.10
2018-08-17T06:24:07.895Z,28.50
2018-08-17T06:29:11.347Z,27.90
2018-08-17T06:34:14.859Z,26.50
2018-08-17T06:39:18.477Z,25.90
2018-08-17T06:44:21.934Z,26.00
2018-08-17T06:49:25.383Z,25.60
2018-08-17T06:54:28.819Z,26.30
2018-08-17T06:59:32.295Z,27.80
2018-08-17T07:04:35.841Z,29.50
2018-08-17T07:09:39.269Z,30.40
2018-08-17T07:14:42.692Z,31.30
2018-08-17T07:19:46.153Z,31.20
2018-08-17T07:24:49.642Z,31.20
2018-08-17T07:29:53.089Z,31.30
2018-08-17T07:34:56.525Z,31.50
2018-08-17T07:39:59.985Z,32.00
2018-08-17T07:45:03.515Z,32.90
2018-08-17T07:50:07.030Z,33.00
2018-08-17T07:55:10.493Z,33.30
2018-08-17T08:00:14.556Z,32.20
2018-08-17T08:05:18.129Z,32.10
2018-08-17T08:10:21.744Z,31.80
2018-08-17T08:15:25.213Z,30.90
2018-08-17T08:20:33.343Z,30.50
2018-08-17T08:25:36.756Z,30.30
2018-08-17T08:30:40.237Z,30.20
2018-08-17T08:35:43.717Z,30.90
2018-08-17T08:40:47.733Z,31.10
2018-08-17T08:45:51.224Z,30.90
2018-08-17T08:50:54.673Z,31.00
2018-08-17T08:55:58.173Z,31.40
2018-08-17T09:01:01.622Z,31.80
2018-08-17T09:06:05.149Z,31.80
2018-08-17T09:11:08.612Z,31.90
2018-08-17T09:16:12.051Z,32.00
2018-08-17T09:21:15.564Z,32.00
2018-08-17T09:26:19.055Z,32.00
2018-08-17T09:31:22.730Z,32.00
2018-08-17T09:36:26.197Z,31.50
2018-08-17T09:41:29.674Z,31.40
2018-08-17T09:46:33.156Z,31.90
2018-08-17T09:51:37.239Z,31.90
2018-08-17T09:56:40.678Z,32.10
2018-08-17T10:01:49.303Z,32.00
2018-08-17T10:06:58.235Z,32.00
2018-08-17T10:12:01.709Z,32.00
2018-08-17T10:17:05.732Z,32.20
2018-08-17T10:22:09.329Z,32.40
2018-08-17T10:27:12.643Z,32.20
2018-08-17T10:32:16.145Z,32.40
2018-08-17T10:37:19.641Z,32.00
2018-08-17T10:42:23.170Z,31.90
2018-08-17T12:11:46.606Z,32.50
2018-08-17T12:16:50.099Z,32.30
2018-08-17T12:21:53.547Z,32.30
2018-08-17T12:26:57.518Z,32.20
2018-08-17T13:11:03.202Z,31.80
2018-08-17T13:16:08.162Z,32.30
2018-08-17T13:21:11.948Z,32.20
2018-08-17T13:26:15.588Z,31.90
2018-08-17T13:31:19.302Z,31.70
2018-08-17T13:36:22.884Z,31.90
2018-08-17T13:41:26.533Z,31.90
2018-08-17T13:46:30.041Z,31.80
2018-08-17T13:51:33.502Z,31.60
2018-08-17T13:56:36.992Z,31.50
2018-08-17T14:01:40.456Z,31.50
2018-08-17T14:06:44.011Z,31.50
2018-08-17T14:11:47.847Z,31.50
2018-08-17T14:16:51.431Z,31.70
2018-08-17T14:21:55.095Z,31.70
2018-08-17T14:26:58.557Z,31.70
2018-08-17T14:32:02.083Z,31.70
2018-08-17T14:37:05.645Z,31.50
2018-08-17T14:42:09.156Z,31.60
2018-08-17T14:47:12.660Z,31.40
2018-08-17T14:52:16.144Z,31.50
2018-08-17T14:57:19.795Z,31.30
2018-08-17T15:02:23.335Z,31.40
2018-08-17T15:07:26.814Z,31.40
2018-08-17T15:12:30.340Z,31.40
2018-08-17T15:17:33.804Z,31.40
2018-08-17T15:22:37.327Z,31.40
2018-08-17T15:27:40.864Z,31.30
2018-08-17T15:32:44.332Z,31.20
2018-08-17T15:37:47.819Z,31.00
2018-08-17T15:42:51.495Z,30.90
2018-08-17T15:47:55.078Z,30.70
2018-08-17T15:52:58.558Z,30.50
2018-08-17T15:58:02.091Z,30.40
2018-08-17T16:03:05.564Z,30.30
2018-08-17T16:08:09.089Z,30.20
2018-08-17T16:13:12.604Z,30.00
2018-08-17T16:18:16.089Z,29.90
2018-08-17T16:23:19.601Z,29.80
2018-08-17T16:28:23.099Z,29.50
2018-08-17T16:33:26.523Z,29.30
2018-08-17T16:38:30.153Z,29.10
2018-08-17T16:43:44.537Z,28.90
2018-08-17T16:48:48.055Z,28.70
2018-08-17T16:53:51.579Z,28.60
2018-08-17T16:58:55.041Z,28.40
2018-08-17T17:03:58.550Z,28.30
2018-08-17T17:09:05.426Z,28.10
2018-08-17T17:14:08.922Z,28.00
2018-08-17T17:19:16.629Z,27.80
2018-08-17T17:24:20.505Z,27.70
2018-08-17T17:29:24.011Z,27.40
2018-08-17T17:34:27.654Z,27.10
2018-08-17T17:39:31.116Z,26.90
2018-08-17T17:44:34.644Z,26.70
2018-08-17T17:49:38.119Z,26.60
2018-08-17T17:54:41.668Z,26.30
2018-08-17T17:59:53.215Z,26.20
2018-08-17T18:04:56.692Z,26.00
2018-08-17T18:10:00.148Z,25.90
2018-08-17T18:15:03.697Z,25.70
2018-08-17T18:20:07.267Z,25.50
2018-08-17T18:25:17.381Z,25.40
2018-08-17T18:30:20.911Z,25.30
2018-08-17T18:35:24.502Z,25.20
2018-08-17T18:40:28.116Z,25.00
2018-08-17T18:45:31.733Z,24.90
2018-08-17T18:50:35.203Z,24.80
2018-08-17T18:55:38.691Z,24.70
2018-08-17T19:00:42.183Z,24.60
2018-08-17T19:05:45.709Z,24.50
2018-08-17T19:10:50.787Z,24.50
2018-08-17T19:15:54.644Z,24.40
2018-08-17T19:21:02.723Z,24.40
2018-08-17T19:26:07.369Z,24.40
2018-08-17T19:31:10.909Z,24.40
2018-08-17T19:36:14.440Z,24.30
2018-08-17T19:41:19.567Z,24.20
2018-08-17T19:46:23.238Z,24.20
2018-08-17T19:51:26.613Z,24.10
2018-08-17T19:56:30.283Z,24.00
2018-08-17T20:01:33.782Z,24.00
2018-08-17T20:06:37.310Z,23.90
2018-08-17T20:11:40.768Z,23.80
2018-08-17T20:16:44.265Z,23.70
2018-08-17T20:21:47.750Z,23.60
2018-08-17T20:26:52.767Z,23.50
2018-08-17T20:31:56.125Z,23.40
2018-08-17T20:36:59.633Z,23.30
2018-08-17T20:42:03.668Z,23.20
2018-08-17T20:47:07.577Z,23.10
2018-08-17T20:52:11.055Z,23.00
2018-08-17T20:57:14.505Z,23.00
2018-08-17T21:02:18.036Z,22.90
2018-08-17T21:07:21.598Z,22.80
2018-08-17T21:12:25.076Z,22.80
2018-08-17T21:17:28.529Z,22.70
2018-08-17T21:22:32.027Z,22.70
2018-08-17T21:27:35.721Z,22.80
2018-08-17T21:32:39.199Z,22.80
2018-08-17T21:37:42.692Z,22.90
2018-08-17T21:42:46.704Z,23.00
2018-08-17T21:47:50.143Z,23.00
2018-08-17T21:52:53.604Z,23.10
2018-08-17T21:57:57.079Z,23.10
2018-08-17T22:03:00.704Z,23.20
2018-08-17T22:08:04.181Z,23.10
2018-08-17T22:13:17.779Z,23.00
2018-08-17T22:18:21.252Z,23.00
2018-08-17T22:23:24.961Z,22.90
2018-08-17T22:28:35.015Z,22.80
2018-08-17T22:33:38.507Z,22.60
2018-08-17T22:38:45.528Z,22.40
2018-08-17T22:43:49.047Z,22.20
2018-08-17T22:48:52.582Z,22.20
2018-08-17T22:53:55.952Z,22.10
2018-08-17T22:58:59.448Z,22.00
2018-08-17T23:04:03.040Z,22.00
2018-08-17T23:09:06.965Z,21.90
2018-08-17T23:14:13.828Z,21.80
2018-08-17T23:19:17.267Z,21.70
2018-08-17T23:24:20.781Z,21.50
2018-08-17T23:29:24.203Z,21.40
2018-08-17T23:34:27.636Z,21.20
2018-08-17T23:39:31.108Z,21.10
2018-08-17T23:44:34.593Z,21.10
2018-08-17T23:49:38.045Z,21.00
2018-08-17T23:54:41.512Z,20.80
2018-08-17T23:59:44.959Z,20.80
